createdAt,value
2022-08-09T00:00:28.161Z,3.03
2022-08-09T00:02:54.486Z,3.08
2022-08-09T00:06:18.516Z,2.67
2022-08-09T00:08:10.819Z,2.85
2022-08-09T00:10:38.864Z,2.60
2022-08-09T00:13:06.621Z,3.00
2022-08-09T00:16:00.084Z,3.00
2022-08-09T00:18:29.266Z,2.83
2022-08-09T00:20:55.535Z,3.20
2022-08-09T00:23:56.395Z,2.67
2022-08-09T00:26:08.646Z,2.80
2022-08-09T00:28:37.837Z,2.72
2022-08-09T00:31:30.317Z,2.95
2022-08-09T00:33:52.200Z,2.85
2022-08-09T00:36:19.392Z,2.72
2022-08-09T00:38:45.638Z,2.80
2022-08-09T00:44:07.976Z,2.42
2022-08-09T00:44:19.392Z,2.70
2022-08-09T00:46:57.387Z,2.80
2022-08-09T00:49:31.758Z,2.67
2022-08-09T00:51:58.698Z,2.80
2022-08-09T00:54:36.096Z,2.53
2022-08-09T00:57:08.928Z,2.50
2022-08-09T00:59:41.422Z,2.97
2022-08-09T01:02:16.052Z,2.58
2022-08-09T01:04:48.901Z,2.58
2022-08-09T01:07:37.802Z,3.05
2022-08-09T01:10:15.849Z,3.00
2022-08-09T01:12:45.408Z,3.00
2022-08-09T01:15:17.879Z,2.63
2022-08-09T01:17:49.263Z,2.60
2022-08-09T01:20:56.929Z,2.53
2022-08-09T01:24:02.149Z,2.70
2022-08-09T01:26:33.634Z,2.88
2022-08-09T01:29:01.612Z,3.38
2022-08-09T01:32:29.174Z,3.13
2022-08-09T01:34:18.073Z,3.53
2022-08-09T01:36:45.080Z,3.40
2022-08-09T01:39:13.192Z,2.83
2022-08-09T01:41:53.546Z,3.13
2022-08-09T01:44:23.074Z,3.42
2022-08-09T01:46:50.270Z,3.30
2022-08-09T01:49:21.022Z,3.13
2022-08-09T01:51:55.078Z,3.17
2022-08-09T01:54:22.811Z,3.17
2022-08-09T01:56:51.639Z,3.05
2022-08-09T01:59:19.442Z,3.33
2022-08-09T02:01:59.405Z,2.92
2022-08-09T02:04:28.215Z,2.83
2022-08-09T02:07:08.641Z,2.65
2022-08-09T02:09:46.707Z,2.83
2022-08-09T02:12:26.745Z,2.90
2022-08-09T02:14:54.584Z,3.40
2022-08-09T02:17:54.956Z,2.88
2022-08-09T02:20:11.084Z,3.08
2022-08-09T02:22:47.998Z,3.25
2022-08-09T02:25:17.154Z,3.63
2022-08-09T02:28:00.244Z,2.95
2022-08-09T02:30:31.689Z,3.25
2022-08-09T02:32:59.368Z,3.10
2022-08-09T02:36:01.100Z,3.05
2022-08-09T02:38:27.937Z,3.53
2022-08-09T02:40:57.432Z,3.15
2022-08-09T02:43:28.700Z,3.38
2022-08-09T02:45:55.657Z,3.25
2022-08-09T02:48:31.135Z,3.17
2022-08-09T02:50:58.928Z,3.38
2022-08-09T02:53:29.454Z,3.40
2022-08-09T02:55:58.849Z,3.20
2022-08-09T02:58:36.396Z,3.15
2022-08-09T03:01:06.305Z,2.83
2022-08-09T03:04:12.530Z,3.70
2022-08-09T03:06:21.728Z,3.33
2022-08-09T03:08:49.159Z,3.40
2022-08-09T03:11:29.762Z,3.25
2022-08-09T03:14:03.009Z,3.00
2022-08-09T03:16:29.504Z,3.40
2022-08-09T03:18:55.933Z,3.45
2022-08-09T03:21:25.886Z,3.08
2022-08-09T03:24:03.997Z,3.33
2022-08-09T03:26:32.187Z,2.80
2022-08-09T03:28:59.297Z,3.05
2022-08-09T03:31:25.855Z,3.05
2022-08-09T03:33:53.063Z,3.22
2022-08-09T03:36:21.019Z,3.65
2022-08-09T03:38:53.449Z,3.47
2022-08-09T03:41:20.239Z,3.47
2022-08-09T03:44:08.482Z,2.95
2022-08-09T03:46:35.429Z,3.00
2022-08-09T03:49:08.957Z,3.30
2022-08-09T03:51:57.431Z,3.70
2022-08-09T03:54:29.502Z,2.60
2022-08-09T03:56:57.858Z,2.95
2022-08-09T03:59:42.590Z,3.00
2022-08-09T04:02:10.019Z,2.95
2022-08-09T04:04:39.000Z,3.10
2022-08-09T04:07:05.629Z,3.00
2022-08-09T04:09:48.392Z,3.17
2022-08-09T04:12:30.988Z,2.90
2022-08-09T04:15:01.841Z,3.55
2022-08-09T04:17:37.610Z,3.05
2022-08-09T04:20:06.130Z,2.75
2022-08-09T04:22:33.953Z,3.10
2022-08-09T04:25:01.434Z,2.80
2022-08-09T04:27:29.475Z,3.30
2022-08-09T04:29:55.925Z,3.20
2022-08-09T04:32:37.238Z,3.35
2022-08-09T04:35:05.775Z,2.80
2022-08-09T04:37:42.031Z,3.10
2022-08-09T04:40:29.092Z,3.03
2022-08-09T04:42:58.937Z,3.30
2022-08-09T04:45:25.234Z,3.13
2022-08-09T04:48:03.008Z,3.13
2022-08-09T04:50:34.929Z,3.28
2022-08-09T04:53:13.300Z,3.22
2022-08-09T04:55:57.941Z,3.10
2022-08-09T04:58:26.121Z,3.42
2022-08-09T05:00:54.246Z,3.30
2022-08-09T05:03:42.781Z,2.88
2022-08-09T05:06:07.665Z,3.33
2022-08-09T05:08:37.012Z,3.10
2022-08-09T05:11:06.686Z,3.17
2022-08-09T05:13:34.055Z,3.00
2022-08-09T05:16:05.376Z,3.38
2022-08-09T05:18:37.586Z,2.97
2022-08-09T05:21:09.792Z,3.60
2022-08-09T05:23:57.910Z,3.22
2022-08-09T05:26:37.210Z,2.72
2022-08-09T05:29:17.067Z,2.88
2022-08-09T05:31:46.771Z,3.10
2022-08-09T05:34:17.554Z,2.60
2022-08-09T05:36:47.238Z,3.00
2022-08-09T05:39:14.362Z,2.83
2022-08-09T05:41:54.957Z,3.13
2022-08-09T05:44:22.229Z,2.90
2022-08-09T05:46:55.487Z,2.65
2022-08-09T05:50:05.834Z,3.20
2022-08-09T05:52:08.345Z,2.85
2022-08-09T05:54:34.616Z,2.90
2022-08-09T05:57:00.877Z,2.67
2022-08-09T05:59:27.159Z,2.50
2022-08-09T06:01:53.404Z,2.28
2022-08-09T06:04:25.299Z,3.25
2022-08-09T06:07:01.339Z,2.55
2022-08-09T06:09:40.727Z,2.40
2022-08-09T06:12:13.839Z,2.78
2022-08-09T06:14:40.215Z,2.22
2022-08-09T06:17:09.935Z,2.17
2022-08-09T06:19:36.564Z,2.50
2022-08-09T06:22:03.662Z,2.78
2022-08-09T06:24:29.936Z,2.70
2022-08-09T06:26:57.913Z,2.70
2022-08-09T06:29:24.854Z,2.22
2022-08-09T06:32:08.335Z,2.20
2022-08-09T06:34:39.696Z,2.38
2022-08-09T06:37:08.076Z,2.10
2022-08-09T06:39:48.316Z,2.53
2022-08-09T06:42:24.664Z,2.17
2022-08-09T06:44:55.221Z,2.17
2022-08-09T06:47:24.019Z,2.10
2022-08-09T06:50:13.950Z,2.20
2022-08-09T06:52:36.761Z,2.15
2022-08-09T06:55:12.648Z,2.05
2022-08-09T06:58:01.992Z,1.98
2022-08-09T07:00:50.763Z,1.95
2022-08-09T07:03:12.363Z,1.95
2022-08-09T07:05:58.087Z,2.05
2022-08-09T07:08:24.947Z,1.90
2022-08-09T07:10:51.388Z,2.10
2022-08-09T07:13:27.230Z,2.38
2022-08-09T07:16:41.403Z,2.03
2022-08-09T07:18:41.085Z,2.33
2022-08-09T07:21:09.180Z,2.00
2022-08-09T07:23:36.555Z,2.30
2022-08-09T07:26:22.817Z,1.75
2022-08-09T07:29:08.856Z,2.13
2022-08-09T07:31:38.642Z,2.10
2022-08-09T07:34:20.742Z,2.55
2022-08-09T07:36:47.751Z,1.95
2022-08-09T07:39:20.473Z,2.25
2022-08-09T07:42:00.336Z,2.00
2022-08-09T07:44:35.938Z,2.22
2022-08-09T07:47:13.571Z,1.88
2022-08-09T07:50:05.392Z,2.05
2022-08-09T07:52:28.860Z,2.22
2022-08-09T07:54:56.525Z,2.20
2022-08-09T07:57:23.856Z,2.08
2022-08-09T08:00:03.682Z,2.33
2022-08-09T08:02:30.322Z,2.15
2022-08-09T08:04:56.650Z,2.00
2022-08-09T08:08:43.766Z,2.15
2022-08-09T08:10:11.480Z,1.80
2022-08-09T08:12:43.169Z,1.90
2022-08-09T08:15:11.841Z,2.10
2022-08-09T08:17:53.762Z,1.90
2022-08-09T08:20:28.780Z,2.15
2022-08-09T08:22:58.573Z,1.98
2022-08-09T08:25:44.667Z,2.30
2022-08-09T08:28:14.303Z,2.35
2022-08-09T08:30:41.713Z,2.17
2022-08-09T08:33:12.004Z,1.90
2022-08-09T08:35:59.685Z,1.92
2022-08-09T08:38:24.863Z,2.10
2022-08-09T08:40:52.984Z,2.58
2022-08-09T08:43:19.430Z,2.30
2022-08-09T08:45:53.309Z,2.20
2022-08-09T08:48:21.003Z,2.00
2022-08-09T08:50:49.197Z,1.88
2022-08-09T08:53:22.046Z,1.77
2022-08-09T08:55:48.740Z,1.70
2022-08-09T08:58:18.755Z,2.38
2022-08-09T09:00:54.323Z,2.60
2022-08-09T09:03:33.145Z,2.45
2022-08-09T09:06:05.552Z,1.95
2022-08-09T09:08:40.641Z,2.17
2022-08-09T09:11:08.761Z,2.28
2022-08-09T09:13:55.561Z,1.90
2022-08-09T09:16:31.135Z,2.30
2022-08-09T09:19:21.569Z,1.90
2022-08-09T09:22:05.199Z,1.98
2022-08-09T09:24:33.285Z,2.03
2022-08-09T09:27:01.503Z,2.10
2022-08-09T09:29:40.928Z,1.85
2022-08-09T09:32:34.604Z,1.98
2022-08-09T09:35:03.224Z,2.30
2022-08-09T09:37:35.553Z,1.92
2022-08-09T09:40:03.068Z,2.72
2022-08-09T09:42:31.225Z,2.28
2022-08-09T09:45:03.183Z,2.63
2022-08-09T09:47:29.765Z,2.47
2022-08-09T09:50:15.646Z,2.35
2022-08-09T09:52:54.728Z,2.17
2022-08-09T09:55:28.407Z,2.28
2022-08-09T09:58:04.217Z,2.50
2022-08-09T10:00:54.398Z,2.22
2022-08-09T10:03:37.746Z,2.45
2022-08-09T10:06:06.151Z,2.58
2022-08-09T10:08:32.565Z,2.35
2022-08-09T10:11:59.377Z,2.95
2022-08-09T10:14:30.426Z,2.45
2022-08-09T10:17:17.250Z,2.45
2022-08-09T10:19:46.224Z,2.20
2022-08-09T10:22:12.589Z,2.20
2022-08-09T10:24:39.318Z,2.35
2022-08-09T10:27:10.432Z,2.47
2022-08-09T10:30:27.341Z,3.22
2022-08-09T10:32:46.099Z,2.78
2022-08-09T10:35:13.236Z,2.35
2022-08-09T10:37:39.775Z,2.35
2022-08-09T10:40:08.690Z,2.45
2022-08-09T10:42:38.552Z,2.23
2022-08-09T10:45:12.134Z,2.80
2022-08-09T10:48:26.051Z,2.72
2022-08-09T10:50:51.408Z,2.90
2022-08-09T10:53:38.023Z,2.38
2022-08-09T10:56:16.292Z,2.35
2022-08-09T10:58:49.624Z,2.60
2022-08-09T11:03:06.846Z,2.60
2022-08-09T11:04:30.944Z,2.90
2022-08-09T11:06:58.125Z,2.33
2022-08-09T11:09:38.730Z,2.50
2022-08-09T11:12:17.834Z,2.90
2022-08-09T11:14:57.389Z,2.47
2022-08-09T11:17:24.380Z,2.80
2022-08-09T11:20:12.253Z,2.13
2022-08-09T11:22:45.421Z,2.78
2022-08-09T11:25:12.784Z,2.85
2022-08-09T11:28:03.533Z,2.55
2022-08-09T11:30:33.315Z,2.22
2022-08-09T11:33:03.532Z,2.28
2022-08-09T11:35:34.806Z,2.53
2022-08-09T11:38:32.308Z,1.98
2022-08-09T11:41:05.850Z,2.50
2022-08-09T11:43:35.445Z,2.50
2022-08-09T11:46:04.723Z,3.47
2022-08-09T11:48:32.897Z,2.63
2022-08-09T11:52:53.790Z,2.65
2022-08-09T11:54:13.500Z,2.13
2022-08-09T11:56:47.539Z,2.67
2022-08-09T11:59:33.002Z,2.40
2022-08-09T12:02:16.581Z,2.50
2022-08-09T12:04:46.906Z,2.35
2022-08-09T12:07:14.276Z,2.38
2022-08-09T12:09:50.333Z,2.10
2022-08-09T12:12:20.360Z,2.78
2022-08-09T12:15:07.813Z,2.50
2022-08-09T12:17:42.330Z,2.33
2022-08-09T12:20:19.862Z,2.10
2022-08-09T12:22:50.375Z,2.00
2022-08-09T12:25:17.680Z,2.50
2022-08-09T12:29:13.274Z,2.05
2022-08-09T12:30:57.616Z,2.22
2022-08-09T12:33:24.503Z,2.38
2022-08-09T12:36:05.684Z,2.35
2022-08-09T12:38:52.734Z,2.30
2022-08-09T12:41:29.288Z,1.90
2022-08-09T12:44:06.149Z,3.20
2022-08-09T12:46:34.448Z,4.22
2022-08-09T12:49:03.577Z,4.53
2022-08-09T12:51:52.602Z,2.63
2022-08-09T12:54:16.157Z,2.85
2022-08-09T12:56:51.034Z,2.70
2022-08-09T12:59:20.952Z,5.22
2022-08-09T13:02:15.162Z,3.15
2022-08-09T13:04:41.569Z,3.10
2022-08-09T13:07:11.948Z,2.83
2022-08-09T13:09:41.014Z,2.80
2022-08-09T13:12:19.826Z,2.45
2022-08-09T13:14:53.876Z,3.28
2022-08-09T13:17:44.068Z,3.28
2022-08-09T13:20:18.879Z,2.35
2022-08-09T13:23:06.154Z,2.55
2022-08-09T13:25:42.347Z,2.88
2022-08-09T13:28:10.775Z,3.08
2022-08-09T13:32:09.987Z,2.70
2022-08-09T13:33:51.621Z,2.80
2022-08-09T13:36:24.420Z,2.08
2022-08-09T13:39:04.177Z,2.67
2022-08-09T13:41:57.681Z,2.38
2022-08-09T13:44:26.465Z,2.60
2022-08-09T13:47:27.490Z,2.10
2022-08-09T13:49:57.944Z,2.25
2022-08-09T13:52:26.655Z,1.98
2022-08-09T13:55:00.156Z,2.50
2022-08-09T13:57:37.132Z,2.42
2022-08-09T14:00:08.946Z,2.25
2022-08-09T14:02:36.329Z,2.03
2022-08-09T14:05:09.991Z,2.10
2022-08-09T14:07:41.358Z,2.50
2022-08-09T14:10:09.328Z,2.70
2022-08-09T14:12:43.953Z,2.40
2022-08-09T14:16:07.269Z,2.28
2022-08-09T14:18:16.504Z,2.25
2022-08-09T14:20:42.851Z,2.45
2022-08-09T14:23:11.124Z,2.00
2022-08-09T14:25:46.710Z,2.30
2022-08-09T14:28:17.003Z,2.27
2022-08-09T14:30:47.416Z,1.80
2022-08-09T14:33:13.656Z,2.65
2022-08-09T14:35:52.838Z,2.40
2022-08-09T14:38:19.704Z,2.45
2022-08-09T14:41:01.132Z,2.33
2022-08-09T14:43:46.816Z,2.30
2022-08-09T14:46:58.131Z,2.90
2022-08-09T14:49:00.873Z,2.30
2022-08-09T14:51:27.371Z,2.63
2022-08-09T14:53:55.879Z,2.63
2022-08-09T14:56:22.188Z,2.65
2022-08-09T15:01:22.689Z,2.15
2022-08-09T15:03:48.974Z,2.20
2022-08-09T15:06:15.271Z,2.08
2022-08-09T15:08:41.581Z,2.20
2022-08-09T15:11:07.856Z,2.35
2022-08-09T15:13:47.992Z,2.30
2022-08-09T15:16:20.403Z,2.08
2022-08-09T15:18:48.267Z,2.22
2022-08-09T15:21:54.982Z,1.92
2022-08-09T15:24:12.205Z,2.30
2022-08-09T15:26:45.332Z,2.40
2022-08-09T15:30:55.523Z,2.35
2022-08-09T15:31:59.162Z,2.55
2022-08-09T15:34:34.209Z,3.03
2022-08-09T15:37:04.158Z,2.67
2022-08-09T15:39:43.872Z,2.53
2022-08-09T15:42:18.991Z,2.40
2022-08-09T15:44:45.419Z,2.10
2022-08-09T15:47:13.973Z,4.00
2022-08-09T15:49:41.018Z,3.80
2022-08-09T15:52:27.139Z,3.13
2022-08-09T15:54:53.631Z,2.50
2022-08-09T15:57:34.327Z,2.75
2022-08-09T16:00:08.786Z,2.40
2022-08-09T16:02:37.497Z,2.75
2022-08-09T16:05:08.426Z,4.00
2022-08-09T16:07:39.446Z,5.43
2022-08-09T16:10:38.517Z,2.85
2022-08-09T16:12:59.056Z,2.45
2022-08-09T16:16:11.374Z,4.45
2022-08-09T16:18:12.816Z,3.50
2022-08-09T16:20:41.570Z,3.60
2022-08-09T16:23:08.495Z,2.85
2022-08-09T16:25:40.640Z,3.05
2022-08-09T16:28:07.241Z,3.53
2022-08-09T16:30:33.530Z,3.20
2022-08-09T16:33:10.119Z,3.38
2022-08-09T16:35:53.048Z,2.95
2022-08-09T16:38:23.226Z,2.85
2022-08-09T16:40:49.589Z,3.20
2022-08-09T16:43:15.902Z,4.07
2022-08-09T16:45:45.266Z,3.28
2022-08-09T16:48:38.473Z,5.00
2022-08-09T16:50:59.051Z,3.35
2022-08-09T16:53:26.787Z,3.05
2022-08-09T16:56:03.663Z,2.88
2022-08-09T16:58:35.889Z,3.05
2022-08-09T17:01:03.445Z,3.15
2022-08-09T17:03:30.317Z,2.78
2022-08-09T17:06:06.615Z,4.13
2022-08-09T17:08:44.245Z,5.65
2022-08-09T17:11:24.576Z,4.88
2022-08-09T17:14:01.154Z,3.38
2022-08-09T17:16:28.602Z,3.42
2022-08-09T17:18:55.017Z,3.25
2022-08-09T17:21:21.716Z,3.28
2022-08-09T17:24:26.918Z,2.90
2022-08-09T17:26:38.264Z,3.03
2022-08-09T17:29:04.847Z,2.80
2022-08-09T17:31:38.960Z,3.15
2022-08-09T17:34:06.705Z,2.83
2022-08-09T17:36:53.623Z,2.63
2022-08-09T17:39:20.221Z,2.95
2022-08-09T17:44:47.650Z,2.75
2022-08-09T17:47:04.785Z,2.90
2022-08-09T17:49:31.408Z,2.78
2022-08-09T17:51:58.057Z,2.85
2022-08-09T17:54:28.211Z,2.70
2022-08-09T17:56:56.123Z,2.63
2022-08-09T17:59:22.486Z,2.85
2022-08-09T18:02:07.858Z,2.78
2022-08-09T18:04:36.397Z,2.78
2022-08-09T18:07:04.654Z,2.78
2022-08-09T18:12:17.684Z,2.70
2022-08-09T18:14:53.721Z,2.90
2022-08-09T18:18:01.098Z,2.70
2022-08-09T18:20:56.085Z,2.72
2022-08-09T18:22:55.019Z,3.15
2022-08-09T18:25:21.292Z,2.67
2022-08-09T18:28:21.623Z,2.78
2022-08-09T18:30:54.071Z,2.90
2022-08-09T18:33:23.259Z,2.50
2022-08-09T18:36:00.126Z,2.90
2022-08-09T18:38:26.958Z,2.70
2022-08-09T18:40:55.186Z,2.75
2022-08-09T18:43:21.935Z,2.55
2022-08-09T18:46:47.436Z,2.72
2022-08-09T18:48:35.855Z,2.65
2022-08-09T18:51:02.113Z,2.55
2022-08-09T18:53:44.281Z,2.60
2022-08-09T18:56:15.974Z,2.90
2022-08-09T18:58:42.452Z,2.83
2022-08-09T19:01:11.436Z,2.72
2022-08-09T19:04:01.015Z,2.95
2022-08-09T19:06:25.144Z,2.67
2022-08-09T19:08:55.196Z,2.67
2022-08-09T19:11:37.495Z,2.67
2022-08-09T19:14:06.362Z,2.75
2022-08-09T19:16:36.410Z,2.55
2022-08-09T19:22:05.000Z,2.42
2022-08-09T19:25:07.390Z,2.40
2022-08-09T19:27:18.960Z,2.90
2022-08-09T19:30:23.069Z,2.63
2022-08-09T19:32:32.232Z,2.42
2022-08-09T19:34:59.887Z,2.78
2022-08-09T19:37:26.198Z,2.65
2022-08-09T19:40:04.857Z,2.47
2022-08-09T19:42:31.965Z,2.72
2022-08-09T19:44:58.369Z,2.88
2022-08-09T19:47:27.009Z,2.67
2022-08-09T19:50:07.862Z,2.85
2022-08-09T19:52:51.902Z,2.65
2022-08-09T19:55:19.420Z,2.75
2022-08-09T19:57:45.953Z,2.80
2022-08-09T20:00:12.585Z,2.70
2022-08-09T20:04:11.168Z,4.03
2022-08-09T20:05:26.360Z,3.20
2022-08-09T20:07:59.813Z,2.92
2022-08-09T20:10:28.019Z,3.60
2022-08-09T20:13:01.316Z,4.38
2022-08-09T20:16:34.643Z,3.63
2022-08-09T20:18:14.242Z,3.75
2022-08-09T20:20:40.618Z,4.05
2022-08-09T20:23:07.736Z,4.45
2022-08-09T20:25:49.492Z,3.45
2022-08-09T20:28:27.475Z,3.25
2022-08-09T20:31:00.561Z,3.20
2022-08-09T20:33:29.371Z,3.22
2022-08-09T20:36:08.125Z,5.90
2022-08-09T20:38:52.738Z,4.30
2022-08-09T20:41:20.932Z,4.47
2022-08-09T20:44:00.951Z,3.33
2022-08-09T20:46:41.959Z,2.80
2022-08-09T20:49:11.442Z,3.40
2022-08-09T20:51:40.899Z,3.53
2022-08-09T20:54:08.069Z,3.00
2022-08-09T20:56:39.101Z,3.10
2022-08-09T20:59:07.345Z,3.03
2022-08-09T21:01:50.122Z,2.90
2022-08-09T21:05:54.407Z,2.88
2022-08-09T21:07:12.125Z,3.00
2022-08-09T21:09:45.918Z,3.10
2022-08-09T21:12:22.605Z,2.80
2022-08-09T21:14:49.085Z,2.80
2022-08-09T21:18:20.691Z,2.60
2022-08-09T21:20:02.647Z,2.72
2022-08-09T21:22:46.983Z,5.53
2022-08-09T21:25:37.779Z,2.80
2022-08-09T21:28:05.111Z,2.83
2022-08-09T21:30:34.063Z,2.60
2022-08-09T21:33:03.478Z,2.70
2022-08-09T21:35:40.611Z,3.20
2022-08-09T21:38:17.869Z,2.83
2022-08-09T21:40:50.799Z,2.60
2022-08-09T21:43:31.415Z,3.05
2022-08-09T21:46:03.590Z,2.90
2022-08-09T21:48:31.362Z,2.85
2022-08-09T21:50:58.489Z,3.22
2022-08-09T21:53:41.003Z,3.42
2022-08-09T21:56:14.976Z,3.47
2022-08-09T21:58:54.186Z,2.78
2022-08-09T22:01:44.823Z,2.70
2022-08-09T22:04:06.670Z,2.67
2022-08-09T22:06:32.961Z,2.65
2022-08-09T22:08:59.552Z,3.03
2022-08-09T22:12:06.814Z,2.80
2022-08-09T22:14:13.280Z,2.53
2022-08-09T22:16:41.107Z,2.78
2022-08-09T22:19:57.876Z,3.17
2022-08-09T22:21:53.952Z,2.85
2022-08-09T22:24:24.845Z,2.70
2022-08-09T22:26:52.205Z,2.80
2022-08-09T22:29:19.206Z,2.75
2022-08-09T22:31:56.319Z,2.50
2022-08-09T22:34:25.897Z,2.63
2022-08-09T22:36:53.540Z,2.70
2022-08-09T22:39:46.978Z,2.30
2022-08-09T22:42:22.367Z,2.50
2022-08-09T22:45:00.548Z,2.83
2022-08-09T22:48:11.354Z,2.40
2022-08-09T22:50:23.059Z,2.72
2022-08-09T22:52:54.929Z,3.33
2022-08-09T22:55:24.728Z,3.08
2022-08-09T22:58:00.546Z,2.70
2022-08-09T23:00:29.274Z,3.00
2022-08-09T23:02:56.386Z,3.03
2022-08-09T23:05:22.652Z,3.33
2022-08-09T23:08:21.726Z,2.67
2022-08-09T23:10:53.864Z,2.95
2022-08-09T23:13:20.100Z,2.50
2022-08-09T23:16:03.297Z,2.55
2022-08-09T23:18:29.912Z,2.83
2022-08-09T23:20:56.136Z,2.28
2022-08-09T23:23:25.492Z,2.30
2022-08-09T23:25:58.229Z,2.58
2022-08-09T23:28:27.213Z,2.33
2022-08-09T23:30:56.445Z,2.30
2022-08-09T23:33:23.048Z,2.55
2022-08-09T23:36:07.049Z,2.70
2022-08-09T23:38:34.537Z,2.33
2022-08-09T23:41:01.278Z,2.53
2022-08-09T23:43:27.709Z,2.40
2022-08-09T23:45:53.959Z,2.53
2022-08-09T23:48:20.288Z,2.53
2022-08-09T23:50:46.638Z,2.78
2022-08-09T23:53:13.061Z,2.78
2022-08-09T23:55:40.380Z,2.88
2022-08-09T23:58:27.719Z,2.60
